createdAt,value
2022-09-20T00:01:32.858Z,8.10
2022-09-20T00:04:05.587Z,8.10
2022-09-20T00:06:34.224Z,8.00
2022-09-20T00:09:03.062Z,8.00
2022-09-20T00:11:33.633Z,8.00
2022-09-20T00:14:03.525Z,7.90
2022-09-20T00:16:35.829Z,7.90
2022-09-20T00:19:06.095Z,7.90
2022-09-20T00:21:36.267Z,7.80
2022-09-20T00:24:04.271Z,7.80
2022-09-20T00:26:31.415Z,7.70
2022-09-20T00:28:59.181Z,7.70
2022-09-20T00:31:26.547Z,7.70
2022-09-20T00:34:16.977Z,7.60
2022-09-20T00:36:44.666Z,7.60
2022-09-20T00:39:14.554Z,7.50
2022-09-20T00:41:41.897Z,7.50
2022-09-20T00:44:47.853Z,7.50
2022-09-20T00:47:35.204Z,7.40
2022-09-20T00:50:49.594Z,7.40
2022-09-20T00:53:26.469Z,7.40
2022-09-20T00:56:04.511Z,7.40
2022-09-20T00:58:38.305Z,7.40
2022-09-20T01:01:06.842Z,7.40
2022-09-20T01:03:36.862Z,7.30
2022-09-20T01:06:09.793Z,7.40
2022-09-20T01:08:38.583Z,7.30
2022-09-20T01:11:05.976Z,7.30
2022-09-20T01:13:32.916Z,7.30
2022-09-20T01:16:02.534Z,7.30
2022-09-20T01:18:32.148Z,7.30
2022-09-20T01:21:01.170Z,7.30
2022-09-20T01:23:54.285Z,7.30
2022-09-20T01:26:40.089Z,7.30
2022-09-20T01:29:30.523Z,7.20
2022-09-20T01:32:01.943Z,7.20
2022-09-20T01:34:37.108Z,7.20
2022-09-20T01:37:19.202Z,7.20
2022-09-20T01:40:18.749Z,7.30
2022-09-20T01:43:08.401Z,7.30
2022-09-20T01:45:35.674Z,7.30
2022-09-20T01:48:13.840Z,7.30
2022-09-20T01:51:53.817Z,7.40
2022-09-20T01:54:57.864Z,7.40
2022-09-20T01:57:54.008Z,7.40
2022-09-20T02:00:26.249Z,7.40
2022-09-20T02:03:05.306Z,7.40
2022-09-20T02:05:49.573Z,7.50
2022-09-20T02:08:57.249Z,7.50
2022-09-20T02:11:56.224Z,7.50
2022-09-20T02:14:35.875Z,7.40
2022-09-20T02:17:45.429Z,7.40
2022-09-20T02:20:46.684Z,7.40
2022-09-20T02:23:45.732Z,7.40
2022-09-20T02:26:57.709Z,7.30
2022-09-20T02:29:59.362Z,7.30
2022-09-20T02:32:40.699Z,7.20
2022-09-20T02:35:20.468Z,7.20
2022-09-20T02:38:14.006Z,7.20
2022-09-20T02:41:11.417Z,7.20
2022-09-20T02:44:04.392Z,7.20
2022-09-20T02:47:06.616Z,7.20
2022-09-20T02:50:16.594Z,7.20
2022-09-20T02:53:11.882Z,7.20
2022-09-20T02:55:50.358Z,7.10
2022-09-20T02:58:53.327Z,7.10
2022-09-20T03:01:45.986Z,7.10
2022-09-20T03:04:44.627Z,7.00
2022-09-20T03:07:40.787Z,6.90
2022-09-20T03:10:37.610Z,6.90
2022-09-20T03:13:22.453Z,6.80
2022-09-20T03:16:14.703Z,6.80
2022-09-20T03:19:22.347Z,6.80
2022-09-20T03:22:40.580Z,6.80
2022-09-20T03:25:39.097Z,6.70
2022-09-20T03:28:25.570Z,6.70
2022-09-20T03:31:04.887Z,6.70
2022-09-20T03:33:59.007Z,6.80
2022-09-20T03:37:17.991Z,6.80
2022-09-20T03:40:25.949Z,6.90
2022-09-20T03:42:54.503Z,7.00
2022-09-20T03:45:45.488Z,7.00
2022-09-20T03:48:41.263Z,7.10
2022-09-20T03:51:33.836Z,7.20
2022-09-20T03:54:35.334Z,7.30
2022-09-20T03:57:31.377Z,7.40
2022-09-20T04:00:22.696Z,7.50
2022-09-20T04:03:33.293Z,7.60
2022-09-20T04:06:35.650Z,7.70
2022-09-20T04:09:34.101Z,7.80
2022-09-20T04:12:56.721Z,7.90
2022-09-20T04:16:00.686Z,8.00
2022-09-20T04:18:43.743Z,8.10
2022-09-20T04:21:59.635Z,8.20
2022-09-20T04:24:50.078Z,8.30
2022-09-20T04:27:38.216Z,8.30
2022-09-20T04:30:22.266Z,8.40
2022-09-20T04:33:01.207Z,8.40
2022-09-20T04:36:12.735Z,8.40
2022-09-20T04:38:40.697Z,8.50
2022-09-20T04:41:32.535Z,8.60
2022-09-20T04:44:27.899Z,8.60
2022-09-20T04:47:35.362Z,8.60
2022-09-20T04:50:21.039Z,8.70
2022-09-20T04:53:28.247Z,8.80
2022-09-20T04:56:03.379Z,8.80
2022-09-20T04:58:47.026Z,8.80
2022-09-20T05:01:17.181Z,8.80
2022-09-20T05:04:40.595Z,8.80
2022-09-20T05:07:57.064Z,8.70
2022-09-20T05:10:57.553Z,8.80
2022-09-20T05:13:43.357Z,8.80
2022-09-20T05:16:52.865Z,8.80
2022-09-20T05:19:43.619Z,8.80
2022-09-20T05:22:42.399Z,8.80
2022-09-20T05:25:51.488Z,8.80
2022-09-20T05:28:30.279Z,8.80
2022-09-20T05:31:28.230Z,8.80
2022-09-20T05:34:07.487Z,8.80
2022-09-20T05:36:48.970Z,8.80
2022-09-20T05:39:47.063Z,8.80
2022-09-20T05:42:42.838Z,8.80
2022-09-20T05:46:03.770Z,8.90
2022-09-20T05:49:01.942Z,9.00
2022-09-20T05:52:08.326Z,9.00
2022-09-20T05:55:14.055Z,9.10
2022-09-20T05:57:56.439Z,9.20
2022-09-20T06:00:29.685Z,9.30
2022-09-20T06:03:17.420Z,9.40
2022-09-20T06:06:32.610Z,9.40
2022-09-20T06:09:08.901Z,9.50
2022-09-20T06:11:51.839Z,9.60
2022-09-20T06:15:00.149Z,9.70
2022-09-20T06:18:24.507Z,9.70
2022-09-20T06:21:31.821Z,9.80
2022-09-20T06:24:02.310Z,9.90
2022-09-20T06:26:36.849Z,10.00
2022-09-20T06:29:10.908Z,10.10
2022-09-20T06:31:38.156Z,10.10
2022-09-20T06:34:13.490Z,10.20
2022-09-20T06:37:08.943Z,10.20
2022-09-20T06:40:53.474Z,10.30
2022-09-20T06:43:20.572Z,10.40
2022-09-20T06:45:48.538Z,10.40
2022-09-20T06:48:15.826Z,10.50
2022-09-20T06:50:45.894Z,10.50
2022-09-20T06:53:26.723Z,10.60
2022-09-20T06:55:53.793Z,10.60
2022-09-20T06:58:20.803Z,10.70
2022-09-20T07:00:48.277Z,10.70
2022-09-20T07:03:15.446Z,10.70
2022-09-20T07:05:42.433Z,10.70
2022-09-20T07:08:09.489Z,10.70
2022-09-20T07:10:36.661Z,10.70
2022-09-20T07:13:03.871Z,10.60
2022-09-20T07:15:34.826Z,10.70
2022-09-20T07:18:01.946Z,10.80
2022-09-20T07:20:28.960Z,10.80
2022-09-20T07:22:55.959Z,11.00
2022-09-20T07:25:23.457Z,11.20
2022-09-20T07:27:51.450Z,11.40
2022-09-20T07:30:20.327Z,11.60
2022-09-20T07:32:47.578Z,11.70
2022-09-20T07:35:16.362Z,11.80
2022-09-20T07:37:43.844Z,11.80
2022-09-20T07:40:11.822Z,11.80
2022-09-20T07:42:38.999Z,11.80
2022-09-20T07:45:07.007Z,11.90
2022-09-20T07:47:35.635Z,12.00
2022-09-20T07:50:03.875Z,12.00
2022-09-20T07:52:31.078Z,12.10
2022-09-20T07:54:58.146Z,12.10
2022-09-20T07:57:25.226Z,12.20
2022-09-20T07:59:52.432Z,12.30
2022-09-20T08:02:19.618Z,12.40
2022-09-20T08:04:49.904Z,12.50
2022-09-20T08:07:17.070Z,12.60
2022-09-20T08:09:44.233Z,12.70
2022-09-20T08:15:01.458Z,13.00
2022-09-20T08:17:29.200Z,13.20
2022-09-20T08:19:56.253Z,13.30
2022-09-20T08:22:23.411Z,13.40
2022-09-20T08:24:51.944Z,13.50
2022-09-20T08:27:18.988Z,13.50
2022-09-20T08:29:46.140Z,13.50
2022-09-20T08:32:13.262Z,13.50
2022-09-20T08:34:40.632Z,13.60
2022-09-20T08:37:07.751Z,13.70
2022-09-20T08:42:39.126Z,13.70
2022-09-20T08:45:34.400Z,13.60
2022-09-20T08:48:06.508Z,13.70
2022-09-20T08:50:36.804Z,13.80
2022-09-20T08:53:07.164Z,13.90
2022-09-20T08:55:37.393Z,14.00
2022-09-20T08:58:08.523Z,14.10
2022-09-20T09:00:38.236Z,14.30
2022-09-20T09:03:11.646Z,14.50
2022-09-20T09:05:50.587Z,14.60
2022-09-20T09:08:19.540Z,14.80
2022-09-20T09:10:54.661Z,14.90
2022-09-20T09:13:42.848Z,15.00
2022-09-20T09:16:15.208Z,14.90
2022-09-20T09:18:46.080Z,15.20
2022-09-20T09:21:22.412Z,15.10
2022-09-20T09:24:04.602Z,15.20
2022-09-20T09:26:40.862Z,15.40
2022-09-20T09:29:14.563Z,15.60
2022-09-20T09:31:44.061Z,15.60
2022-09-20T09:34:38.831Z,15.60
2022-09-20T09:37:06.021Z,15.90
2022-09-20T09:39:38.364Z,15.90
2022-09-20T09:42:28.778Z,16.00
2022-09-20T09:45:12.926Z,16.00
2022-09-20T09:47:39.966Z,16.10
2022-09-20T09:50:22.412Z,16.10
2022-09-20T09:53:11.158Z,16.20
2022-09-20T09:56:17.988Z,16.10
2022-09-20T09:59:24.289Z,16.30
2022-09-20T10:02:06.604Z,16.40
2022-09-20T10:05:07.143Z,16.80
2022-09-20T10:08:05.550Z,16.60
2022-09-20T10:11:03.220Z,16.80
2022-09-20T10:14:05.352Z,16.90
2022-09-20T10:16:57.235Z,16.70
2022-09-20T10:20:28.618Z,16.60
2022-09-20T10:23:45.005Z,16.50
2022-09-20T10:26:46.025Z,16.30
2022-09-20T10:29:53.549Z,15.70
2022-09-20T10:33:04.265Z,14.80
2022-09-20T10:35:55.899Z,14.20
2022-09-20T10:38:37.640Z,13.80
2022-09-20T10:41:53.568Z,13.60
2022-09-20T10:44:37.049Z,13.60
2022-09-20T10:47:21.834Z,13.80
2022-09-20T10:50:18.880Z,13.80
2022-09-20T10:53:03.927Z,14.10
2022-09-20T10:55:59.883Z,14.10
2022-09-20T10:59:06.662Z,14.30
2022-09-20T11:02:08.198Z,14.50
2022-09-20T11:05:21.910Z,14.50
2022-09-20T11:08:00.754Z,14.60
2022-09-20T11:10:37.010Z,14.80
2022-09-20T11:13:51.412Z,15.10
2022-09-20T11:16:31.184Z,15.30
2022-09-20T11:19:12.889Z,15.50
2022-09-20T11:22:19.840Z,15.60
2022-09-20T11:25:23.089Z,15.80
2022-09-20T11:28:13.897Z,15.80
2022-09-20T11:31:12.875Z,16.00
2022-09-20T11:33:47.993Z,16.00
2022-09-20T11:36:58.781Z,16.40
2022-09-20T11:39:36.267Z,16.60
2022-09-20T11:42:05.117Z,16.60
2022-09-20T11:44:33.146Z,16.80
2022-09-20T11:47:53.205Z,16.90
2022-09-20T11:50:38.361Z,17.30
2022-09-20T11:53:34.476Z,17.80
2022-09-20T11:56:25.640Z,17.70
2022-09-20T11:59:05.712Z,17.60
2022-09-20T12:01:42.674Z,17.70
2022-09-20T12:04:39.043Z,17.80
2022-09-20T12:07:18.657Z,17.70
2022-09-20T12:09:54.401Z,17.80
2022-09-20T12:12:44.083Z,18.00
2022-09-20T12:15:35.989Z,18.10
2022-09-20T12:18:28.209Z,18.30
2022-09-20T12:21:15.309Z,18.50
2022-09-20T12:23:57.588Z,18.30
2022-09-20T12:26:27.302Z,18.30
2022-09-20T12:29:01.954Z,18.00
2022-09-20T12:31:32.297Z,17.70
2022-09-20T12:34:11.552Z,17.30
2022-09-20T12:36:44.483Z,17.00
2022-09-20T12:39:11.480Z,16.70
2022-09-20T12:42:07.825Z,16.50
2022-09-20T12:44:34.904Z,16.20
2022-09-20T12:47:09.623Z,16.20
2022-09-20T12:50:07.073Z,16.10
2022-09-20T12:53:03.843Z,16.10
2022-09-20T12:55:42.396Z,16.00
2022-09-20T12:58:15.227Z,16.10
2022-09-20T13:00:54.309Z,16.20
2022-09-20T13:03:31.728Z,16.30
2022-09-20T13:06:08.713Z,16.30
2022-09-20T13:09:01.366Z,16.30
2022-09-20T13:11:56.122Z,16.40
2022-09-20T13:14:29.430Z,16.60
2022-09-20T13:17:29.879Z,16.80
2022-09-20T13:19:57.886Z,17.10
2022-09-20T13:22:37.748Z,17.50
2022-09-20T13:25:07.463Z,17.70
2022-09-20T13:27:54.682Z,17.70
2022-09-20T13:30:25.151Z,18.00
2022-09-20T13:32:52.956Z,18.30
2022-09-20T13:35:27.903Z,18.50
2022-09-20T13:37:58.719Z,18.30
2022-09-20T13:40:47.791Z,17.90
2022-09-20T13:43:36.654Z,17.60
2022-09-20T13:46:28.558Z,17.30
2022-09-20T13:49:21.210Z,17.20
2022-09-20T13:51:49.174Z,16.90
2022-09-20T13:54:32.428Z,16.70
2022-09-20T13:57:03.296Z,16.70
2022-09-20T13:59:41.684Z,16.90
2022-09-20T14:02:30.357Z,17.10
2022-09-20T14:05:01.408Z,17.40
2022-09-20T14:07:29.732Z,17.50
2022-09-20T14:09:58.141Z,17.70
2022-09-20T14:12:26.698Z,17.90
2022-09-20T14:14:54.735Z,18.00
2022-09-20T14:17:24.467Z,18.10
2022-09-20T14:19:58.280Z,18.20
2022-09-20T14:22:29.082Z,18.10
2022-09-20T14:25:20.932Z,18.30
2022-09-20T14:27:48.146Z,18.40
2022-09-20T14:30:36.208Z,18.50
2022-09-20T14:33:07.186Z,18.60
2022-09-20T14:35:34.452Z,18.60
2022-09-20T14:38:08.600Z,18.30
2022-09-20T14:40:47.764Z,18.00
2022-09-20T14:43:34.749Z,18.20
2022-09-20T14:46:14.028Z,18.10
2022-09-20T14:48:41.980Z,18.00
2022-09-20T14:51:18.685Z,17.80
2022-09-20T14:53:51.862Z,17.80
2022-09-20T14:56:38.860Z,17.80
2022-09-20T14:59:42.207Z,17.60
2022-09-20T15:02:14.753Z,17.60
2022-09-20T15:04:56.168Z,17.60
2022-09-20T15:07:23.496Z,17.50
2022-09-20T15:09:50.562Z,17.50
2022-09-20T15:12:20.694Z,17.30
2022-09-20T15:14:48.555Z,17.00
2022-09-20T15:17:20.076Z,16.90
2022-09-20T15:19:48.374Z,16.80
2022-09-20T15:22:17.644Z,16.70
2022-09-20T15:24:44.739Z,16.60
2022-09-20T15:27:12.999Z,16.40
2022-09-20T15:29:40.136Z,16.30
2022-09-20T15:32:10.457Z,16.20
2022-09-20T15:34:38.093Z,16.20
2022-09-20T15:37:05.111Z,16.10
2022-09-20T15:39:32.131Z,16.10
2022-09-20T15:41:59.231Z,15.90
2022-09-20T15:44:26.246Z,15.80
2022-09-20T15:46:53.622Z,15.70
2022-09-20T15:49:21.659Z,15.60
2022-09-20T15:51:48.642Z,15.50
2022-09-20T15:54:15.625Z,15.60
2022-09-20T15:56:42.743Z,15.70
2022-09-20T15:59:12.964Z,15.80
2022-09-20T16:01:43.158Z,15.70
2022-09-20T16:04:21.294Z,15.80
2022-09-20T16:06:50.088Z,15.70
2022-09-20T16:09:18.239Z,15.70
2022-09-20T16:11:46.323Z,15.70
2022-09-20T16:14:14.279Z,15.70
2022-09-20T16:16:41.495Z,15.70
2022-09-20T16:19:17.490Z,15.70
2022-09-20T16:21:58.927Z,15.60
2022-09-20T16:24:33.157Z,15.60
2022-09-20T16:27:02.521Z,15.50
2022-09-20T16:29:31.095Z,15.40
2022-09-20T16:32:00.268Z,15.30
2022-09-20T16:34:31.351Z,15.30
2022-09-20T16:37:11.761Z,15.20
2022-09-20T16:39:40.821Z,15.10
2022-09-20T16:42:09.052Z,14.90
2022-09-20T16:44:39.946Z,14.80
2022-09-20T16:47:10.866Z,14.70
2022-09-20T16:49:38.316Z,14.60
2022-09-20T16:52:07.821Z,14.40
2022-09-20T16:54:35.576Z,14.30
2022-09-20T16:57:03.247Z,14.20
2022-09-20T16:59:30.386Z,14.10
2022-09-20T17:01:57.728Z,14.00
2022-09-20T17:04:25.901Z,13.90
2022-09-20T17:06:53.341Z,13.90
2022-09-20T17:09:20.961Z,13.80
2022-09-20T17:11:50.100Z,13.80
2022-09-20T17:14:19.654Z,13.70
2022-09-20T17:16:49.078Z,13.60
2022-09-20T17:19:23.732Z,13.60
2022-09-20T17:21:51.354Z,13.50
2022-09-20T17:24:23.171Z,13.40
2022-09-20T17:26:51.476Z,13.30
2022-09-20T17:29:20.531Z,13.20
2022-09-20T17:31:55.114Z,13.20
2022-09-20T17:34:23.775Z,13.10
2022-09-20T17:36:51.005Z,13.00
2022-09-20T17:39:18.485Z,12.90
2022-09-20T17:41:48.082Z,12.80
2022-09-20T17:44:15.781Z,12.80
2022-09-20T17:46:45.651Z,12.80
2022-09-20T17:49:21.938Z,12.70
2022-09-20T17:51:54.692Z,12.70
2022-09-20T17:54:24.423Z,12.70
2022-09-20T17:56:55.644Z,12.70
2022-09-20T17:59:24.516Z,12.70
2022-09-20T18:01:54.280Z,12.70
2022-09-20T18:04:21.725Z,12.60
2022-09-20T18:06:51.576Z,12.60
2022-09-20T18:09:22.553Z,12.60
2022-09-20T18:11:52.852Z,12.60
2022-09-20T18:14:27.465Z,12.60
2022-09-20T18:16:58.089Z,12.60
2022-09-20T18:19:32.297Z,12.60
2022-09-20T18:22:02.976Z,12.50
2022-09-20T18:24:30.811Z,12.50
2022-09-20T18:26:57.992Z,12.60
2022-09-20T18:29:25.174Z,12.50
2022-09-20T18:31:57.756Z,12.50
2022-09-20T18:34:30.357Z,12.50
2022-09-20T18:36:59.021Z,12.50
2022-09-20T18:39:35.078Z,12.40
2022-09-20T18:42:03.389Z,12.40
2022-09-20T18:44:34.255Z,12.40
2022-09-20T18:47:03.758Z,12.40
2022-09-20T18:49:32.264Z,12.40
2022-09-20T18:51:59.353Z,12.40
2022-09-20T18:54:30.106Z,12.30
2022-09-20T18:56:57.415Z,12.40
2022-09-20T18:59:26.937Z,12.30
2022-09-20T19:02:06.067Z,12.30
2022-09-20T19:05:00.401Z,12.30
2022-09-20T19:07:27.327Z,12.20
2022-09-20T19:10:06.484Z,12.20
2022-09-20T19:13:04.972Z,12.20
2022-09-20T19:16:11.108Z,12.10
2022-09-20T19:19:14.863Z,12.10
2022-09-20T19:22:03.080Z,12.10
2022-09-20T19:24:56.723Z,12.00
2022-09-20T19:27:25.703Z,11.90
2022-09-20T19:29:53.361Z,11.90
2022-09-20T19:32:24.222Z,11.90
2022-09-20T19:34:55.870Z,11.90
2022-09-20T19:37:56.659Z,11.90
2022-09-20T19:40:52.269Z,11.80
2022-09-20T19:44:05.918Z,11.80
2022-09-20T19:47:02.242Z,11.70
2022-09-20T19:49:52.160Z,11.70
2022-09-20T19:52:19.718Z,11.70
2022-09-20T19:54:47.625Z,11.60
2022-09-20T19:57:37.530Z,11.60
2022-09-20T20:00:09.263Z,11.50
2022-09-20T20:02:36.870Z,11.50
2022-09-20T20:05:04.750Z,11.40
2022-09-20T20:07:44.410Z,11.30
2022-09-20T20:10:35.242Z,11.20
2022-09-20T20:13:33.404Z,11.20
2022-09-20T20:16:08.036Z,11.10
2022-09-20T20:19:06.708Z,11.00
2022-09-20T20:22:05.529Z,10.90
2022-09-20T20:24:49.360Z,10.80
2022-09-20T20:27:16.372Z,10.60
2022-09-20T20:29:43.616Z,10.60
2022-09-20T20:32:11.035Z,10.50
2022-09-20T20:34:38.313Z,10.40
2022-09-20T20:37:05.742Z,10.30
2022-09-20T20:39:33.211Z,10.20
2022-09-20T20:42:02.724Z,10.20
2022-09-20T20:44:31.690Z,10.10
2022-09-20T20:46:59.011Z,10.00
2022-09-20T20:49:26.173Z,10.00
2022-09-20T20:51:53.762Z,9.90
2022-09-20T20:54:21.399Z,9.90
2022-09-20T20:56:48.435Z,9.70
2022-09-20T20:59:17.188Z,9.70
2022-09-20T21:01:47.012Z,9.70
2022-09-20T21:04:15.653Z,9.70
2022-09-20T21:06:42.896Z,9.60
2022-09-20T21:09:11.426Z,9.60
2022-09-20T21:11:44.268Z,9.50
2022-09-20T21:14:12.957Z,9.50
2022-09-20T21:16:43.157Z,9.40
2022-09-20T21:19:14.932Z,9.30
2022-09-20T21:21:44.796Z,9.30
2022-09-20T21:24:15.249Z,9.20
2022-09-20T21:26:42.445Z,9.20
2022-09-20T21:29:15.574Z,9.10
2022-09-20T21:31:45.039Z,9.10
2022-09-20T21:34:15.235Z,9.10
2022-09-20T21:36:44.482Z,9.00
2022-09-20T21:39:12.256Z,9.00
2022-09-20T21:41:40.470Z,9.00
2022-09-20T21:44:10.624Z,8.90
2022-09-20T21:46:40.452Z,8.90
2022-09-20T21:49:13.046Z,8.90
2022-09-20T21:51:42.562Z,8.80
2022-09-20T21:54:10.849Z,8.70
2022-09-20T21:56:40.357Z,8.70
2022-09-20T21:59:07.791Z,8.60
2022-09-20T22:01:38.336Z,8.60
2022-09-20T22:04:11.187Z,8.60
2022-09-20T22:06:42.048Z,8.60
2022-09-20T22:09:13.075Z,8.50
2022-09-20T22:11:43.879Z,8.50
2022-09-20T22:14:12.958Z,8.40
2022-09-20T22:16:42.876Z,8.40
2022-09-20T22:19:13.609Z,8.40
2022-09-20T22:21:49.439Z,8.30
2022-09-20T22:24:17.246Z,8.30
2022-09-20T22:26:51.694Z,8.30
2022-09-20T22:29:19.148Z,8.20
2022-09-20T22:31:48.862Z,8.20
2022-09-20T22:34:20.213Z,8.10
2022-09-20T22:36:47.793Z,8.10
2022-09-20T22:39:15.728Z,8.10
2022-09-20T22:41:43.388Z,8.10
2022-09-20T22:44:11.144Z,8.10
2022-09-20T22:46:39.918Z,8.00
2022-09-20T22:49:09.062Z,8.00
2022-09-20T22:51:37.508Z,8.00
2022-09-20T22:54:08.049Z,7.90
2022-09-20T22:56:36.765Z,7.90
2022-09-20T22:59:10.848Z,7.80
2022-09-20T23:01:44.759Z,7.80
2022-09-20T23:04:16.485Z,7.80
2022-09-20T23:06:54.879Z,7.80
2022-09-20T23:09:28.249Z,7.70
2022-09-20T23:11:55.887Z,7.70
2022-09-20T23:14:23.389Z,7.70
2022-09-20T23:16:50.830Z,7.70
2022-09-20T23:19:18.254Z,7.60
2022-09-20T23:21:45.735Z,7.70
2022-09-20T23:24:14.820Z,7.60
2022-09-20T23:26:43.307Z,7.60
2022-09-20T23:29:16.054Z,7.60
2022-09-20T23:31:46.421Z,7.50
2022-09-20T23:34:15.908Z,7.50
2022-09-20T23:36:44.555Z,7.40
2022-09-20T23:39:12.782Z,7.40
2022-09-20T23:41:41.256Z,7.40
2022-09-20T23:44:10.287Z,7.40
2022-09-20T23:46:38.661Z,7.30
2022-09-20T23:49:06.907Z,7.40
2022-09-20T23:51:35.381Z,7.40
2022-09-20T23:54:03.130Z,7.40
2022-09-20T23:56:30.999Z,7.30
2022-09-20T23:58:58.062Z,7.30
